Aviation Digital Data Service (ADDS)

Output produced by METARs form (2105 UTC 20 August 2019)
found at http://www.aviationweather.gov/metar/data/
 
Forecast for: ZJSY (SANYA/FENGHUANG , CN)
Text: TAF ZJSY 201501Z 2018/2118 27004MPS 9999 FEW020 SCT050 TX32/2106Z TN26/2021Z
Forecast period: 1800 UTC 20 August 2019 to 1800 UTC 21 August 2019
Forecast type: FROM: standard forecast or significant change
Winds: from the W (270 degrees) at 9 MPH (8 knots; 4.1 m/s)
Visibility: 6 or more miles 10+ km)
Ceiling: at least 12,000 feet AGL
Clouds: few clouds at 2000 feet AGL
scattered clouds at 5000 feet AGL
Weather: no significant weather forecast for this period
Text: TEMPO 2020/2102 TSRA SCT014 FEW025CB BKN040
Forecast period: 2000 UTC 20 August 2019 to 0200 UTC 21 August 2019
Forecast type: TEMPORARY: The following changes expected for less than half the time period
Visibility: missing
Ceiling: 4000 feet AGL
Clouds: scattered clouds at 1400 feet AGL
few clouds at 2500 feet AGL
broken clouds at 4000 feet AGL
Weather: TSRA  (rain associated with thunderstorm(s))